IDs: Format: Raw Decoded Include TAF

Data at: 1425 UTC 17 Mar 2018

KMSL 171419Z AUTO 24006KT 10SM OVC014 19/16 A2993 RMK AO2 T01890161
KMSL 171353Z AUTO 21006KT 10SM OVC015 18/16 A2993 RMK AO2 SLP131 T01830161
KMSL 171316Z AUTO 15003KT 10SM SCT012 OVC022 17/15 A2993 RMK AO2 T01720150
KMSL 171253Z AUTO 18005KT 9SM OVC012 17/15 A2992 RMK AO2 SLP129 T01670150
KMSL 171237Z AUTO 17003KT 8SM OVC013 16/15 A2992 RMK AO2 T01610150
KMSL 171153Z AUTO 14003KT 10SM BKN022 OVC029 16/15 A2992 RMK AO2 LTG DSNT SE SLP128 60001 70001 T01610150 10167 20156 53008
KMSL 171138Z AUTO 01003KT 10SM FEW009 BKN026 OVC095 17/15 A2992 RMK AO2 LTG DSNT SE T01670150
KMSL 171124Z AUTO 00000KT 10SM VCTS SCT009 BKN032 OVC095 17/15 A2991 RMK AO2 LTG DSNT NE-SE T01670150
KMSL 171117Z AUTO 00000KT 10SM BKN007 BKN012 OVC095 17/15 A2991 RMK AO2 LTG DSNT NE AND SE T01670150
KMSL 171053Z AUTO 24005KT 10SM VCTS OVC007 17/15 A2990 RMK AO2 LTG DSNT SE-SW TSB37E52 SLP123 T01670150
KMSL 171043Z AUTO 23008KT 8SM TS OVC007 17/15 A2990 RMK AO2 LTG DSNT ALQDS TSB37 CIG 005V009 T01670150
KMSL 171032Z AUTO 22006KT 8SM VCTS OVC007 17/15 A2989 RMK AO2 LTG DSNT ALQDS T01670150
KMSL 171002Z AUTO 23009KT 6SM BR OVC007 17/15 A2990 RMK AO2 LTG DSNT N-E T01670150
KMSL 170953Z AUTO 22010KT 10SM VCTS OVC007 17/15 A2990 RMK AO2 LTG DSNT N-E RAB38E51 SLP120 P0001 T01670150
KMSL 170938Z AUTO 20008KT 7SM VCTS -RA OVC007 17/15 A2989 RMK AO2 LTG DSNT N AND NE RAB38 P0000 T01670150
KMSL 170853Z AUTO 19009KT 10SM OVC007 17/14 A2989 RMK AO2 LTG DSNT N AND NW SLP119 60000 T01670144 56022
KMSL 170753Z AUTO 21007KT 10SM OVC007 16/14 A2992 RMK AO2 SLP127 T01610144
KMSL 170653Z AUTO 19009KT 6SM BR OVC008 16/14 A2993 RMK AO2 RAB27E38 SLP133 P0000 T01610139
KMSL 170634Z AUTO 19007KT 7SM -RA OVC009 16/14 A2994 RMK AO2 RAB27 P0000 T01610139
KMSL 170553Z AUTO 20008KT 10SM OVC011 16/13 A2996 RMK AO2 RAB08E18 SLP141 P0000 60000 T01610133 10172 20150 402060061 58006
KMSL 170453Z AUTO 19011KT 10SM OVC014 16/13 A2997 RMK AO2 SLP145 T01610128
KMSL 170353Z AUTO 17006KT 10SM BKN019 OVC026 16/12 A2998 RMK AO2 SLP148 T01610122
KMSL 170253Z AUTO 18007KT 10SM OVC019 16/12 A2998 RMK AO2 SLP150 T01560117 53003
KMSL 170153Z AUTO 19006KT 10SM OVC020 16/11 A2998 RMK AO2 SLP150 T01560111
KMSL 170113Z AUTO 17010G19KT 10SM BKN025 16/11 A2995 RMK AO2 T01610111
KMSL 170053Z AUTO 18008G16KT 10SM SCT080 16/11 A2996 RMK AO2 SLP143 T01610111
KMSL 170037Z AUTO 16010KT 10SM SCT028 BKN080 16/12 A2996 RMK AO2 T01610117
KMSL 170023Z AUTO 17008KT 10SM BKN029 OVC080 17/11 A2996 RMK AO2 T01670111
KMSL 162353Z AUTO 20011KT 10SM SCT033 17/11 A2997 RMK AO2 SLP148 60000 T01720111 10206 20172 55004
KMSL 162253Z AUTO 20013KT 10SM CLR 18/11 A2997 RMK AO2 SLP146 T01830106
KMSL 162153Z AUTO 18008KT 10SM BKN031 OVC090 19/11 A2998 RMK AO2 RAE2057 SLP150 P0000 T01890111
KMSL 162053Z AUTO 19009KT 10SM -RA SCT043 SCT055 BKN075 18/11 A2999 RMK AO2 RAB43 SLP152 P0000 60000 T01830111 56015
KMSL 161953Z AUTO 20008G17KT 10SM FEW039 BKN048 OVC070 18/11 A3000 RMK AO2 SLP155 T01830111
KMSL 161853Z AUTO 20009KT 10SM FEW035 21/11 A3001 RMK AO2 SLP158 T02060111
KMSL 161753Z AUTO 23007KT 10SM FEW035 FEW065 20/11 A3003 RMK AO2 SLP166 T02000106 10200 20061 56008
KMSL 161653Z AUTO 26007KT 10SM SCT035 19/11 A3004 RMK AO2 SLP169 T01940106
KMSL 161553Z AUTO VRB03KT 10SM CLR 18/08 A3005 RMK AO2 SLP172 T01780078
KMSL 161453Z AUTO VRB03KT 10SM CLR 15/05 A3005 RMK AO2 SLP175 T01500050 51009
KMSL 161353Z AUTO 12003KT 10SM CLR 12/03 A3005 RMK AO2 SLP174 T01220033
KMSL 161253Z AUTO 13003KT 10SM CLR 07/03 A3004 RMK AO2 SLP171 T00720033
KMSL 161153Z AUTO 00000KT 10SM CLR 06/02 A3003 RMK AO2 SLP166 T00610022 10106 20061 53017
KMSL 161053Z AUTO 00000KT 10SM CLR 07/03 A3001 RMK AO2 SLP160 T00720033
KMSL 160953Z AUTO 00000KT 10SM CLR 08/04 A2999 RMK AO2 SLP151 T00780039
KMSL 160853Z AUTO 00000KT 10SM CLR 09/04 A2998 RMK AO2 SLP147 T00890039 55000
KMSL 160753Z AUTO 00000KT 10SM CLR 11/01 A2997 RMK AO2 SLP146 T01060006
KMSL 160653Z AUTO 00000KT 10SM CLR 11/00 A2998 RMK AO2 SLP147 T01060000
KMSL 160553Z AUTO 22003KT 10SM CLR 11/M01 A2998 RMK AO2 SLP147 T01061011 10167 20094 402170000 58003
KMSL 160453Z AUTO 21005KT 10SM CLR 11/M01 A2998 RMK AO2 SLP148 T01061011
KMSL 160353Z AUTO 19004KT 10SM CLR 11/00 A2999 RMK AO2 SLP152 T01110000
KMSL 160253Z AUTO 19004KT 10SM CLR 12/00 A2998 RMK AO2 SLP151 T01170000 51007